Time;durP1;ratioP1;P1;durP2;ratioP2;P2;SDS_P1;SDS_P2;PMS_P1;PMS_P2;Temp;Humidity;BMP_temperature;BMP_pressure;BME280_temperature;BME280_humidity;BME280_pressure;Samples;Min_cycle;Max_cycle;Signal;HPM_P1;HPM_P2
2022/10/03 00:01:04;;;;;;;14.60;11.60;;;;;;;;;;5010180;28;20049;-75
2022/10/03 00:03:32;;;;;;;12.82;11.43;;;;;;;;;;4999133;28;20386;-75
2022/10/03 00:06:01;;;;;;;15.38;12.43;;;;;;;;;;5001732;28;20021;-76
2022/10/03 00:08:35;;;;;;;17.00;12.77;;;;;;;;;;5029303;28;20401;-75
2022/10/03 00:11:04;;;;;;;13.93;11.75;;;;;;;;;;5030058;28;20420;-75
2022/10/03 00:13:33;;;;;;;16.38;12.98;;;;;;;;;;4993805;28;20645;-75
2022/10/03 00:16:02;;;;;;;15.32;13.07;;;;;;;;;;5009610;28;20397;-75
2022/10/03 00:18:40;;;;;;;13.93;11.55;;;;;;;;;;5018598;28;20022;-76
2022/10/03 00:21:13;;;;;;;17.20;12.68;;;;;;;;;;5012876;28;20041;-75
2022/10/03 00:23:48;;;;;;;15.85;12.95;;;;;;;;;;4982105;28;20037;-74
2022/10/03 00:26:31;;;;;;;12.63;10.93;;;;;;;;;;5027324;28;20527;-75
2022/10/03 00:29:15;;;;;;;16.88;12.02;;;;;;;;;;5000337;28;20046;-75
2022/10/03 00:31:54;;;;;;;13.57;11.52;;;;;;;;;;5032550;28;20040;-75
2022/10/03 00:34:19;;;;;;;15.13;10.95;;;;;;;;;;4998475;28;20492;-74
2022/10/03 00:37:04;;;;;;;13.40;11.93;;;;;;;;;;5019021;28;20026;-75
2022/10/03 00:39:36;;;;;;;15.70;12.25;;;;;;;;;;5025799;28;20042;-75
2022/10/03 00:42:20;;;;;;;14.25;11.45;;;;;;;;;;5007347;28;20037;-75
2022/10/03 00:45:05;;;;;;;13.93;10.88;;;;;;;;;;4995312;28;20038;-77
2022/10/03 00:47:41;;;;;;;15.35;11.82;;;;;;;;;;5011607;28;20038;-74
2022/10/03 00:50:13;;;;;;;11.30;10.00;;;;;;;;;;5012564;28;20044;-75
2022/10/03 00:52:41;;;;;;;14.05;11.43;;;;;;;;;;5009947;28;20532;-75
2022/10/03 00:55:10;;;;;;;14.35;11.52;;;;;;;;;;4991606;28;20112;-75
2022/10/03 00:57:42;;;;;;;14.68;11.27;;;;;;;;;;5029796;28;20040;-75
2022/10/03 01:00:27;;;;;;;13.88;11.65;;;;;;;;;;4993254;28;20034;-75
2022/10/03 01:02:55;;;;;;;12.88;11.57;;;;;;;;;;5013927;28;20038;-77
2022/10/03 01:05:30;;;;;;;15.35;11.18;;;;;;;;;;5011491;28;20365;-77
2022/10/03 01:08:08;;;;;;;13.73;10.43;;;;;;;;;;4996835;28;20034;-73
2022/10/03 01:10:43;;;;;;;13.18;10.43;;;;;;;;;;5018688;28;20130;-74
2022/10/03 01:13:21;;;;;;;13.45;10.80;;;;;;;;;;4999103;28;20443;-75
2022/10/03 01:16:13;;;;;;;13.63;11.50;;;;;;;;;;5019042;28;20040;-74
2022/10/03 01:18:42;;;;;;;14.00;11.15;;;;;;;;;;5005401;28;20054;-74
2022/10/03 01:21:14;;;;;;;12.77;11.00;;;;;;;;;;5003387;28;20026;-75
2022/10/03 01:23:39;;;;;;;10.98;9.85;;;;;;;;;;5017449;28;20065;-75
2022/10/03 01:26:05;;;;;;;12.27;10.68;;;;;;;;;;5016590;28;20076;-76
2022/10/03 01:31:31;;;;;;;14.40;10.13;;;;;;;;;;5008184;28;20041;-75
2022/10/03 01:33:57;;;;;;;12.95;10.85;;;;;;;;;;4972551;28;20486;-75
2022/10/03 01:36:43;;;;;;;11.75;9.75;;;;;;;;;;5023743;28;20075;-76
2022/10/03 01:39:26;;;;;;;11.93;10.35;;;;;;;;;;5010845;28;20091;-75
2022/10/03 01:41:52;;;;;;;11.43;9.88;;;;;;;;;;5018570;28;20038;-75
2022/10/03 01:44:23;;;;;;;13.57;11.10;;;;;;;;;;5003332;28;20041;-75
2022/10/03 01:47:09;;;;;;;14.50;11.77;;;;;;;;;;5017256;28;20121;-76
2022/10/03 01:49:40;;;;;;;15.75;11.55;;;;;;;;;;4949995;28;20073;-75
2022/10/03 01:52:09;;;;;;;12.73;9.40;;;;;;;;;;4994305;28;20077;-75
2022/10/03 01:54:41;;;;;;;12.07;8.20;;;;;;;;;;5013211;28;20037;-75
2022/10/03 01:57:12;;;;;;;10.45;8.00;;;;;;;;;;5015062;28;20036;-75
2022/10/03 01:59:50;;;;;;;9.23;7.60;;;;;;;;;;4982125;28;20038;-76
2022/10/03 02:02:21;;;;;;;10.68;7.80;;;;;;;;;;4981405;28;20046;-75
2022/10/03 02:04:50;;;;;;;9.30;7.50;;;;;;;;;;4992485;28;20034;-75
2022/10/03 02:07:35;;;;;;;7.93;6.82;;;;;;;;;;4995781;28;20025;-75
2022/10/03 02:10:20;;;;;;;9.75;7.03;;;;;;;;;;5023411;28;20460;-75
2022/10/03 02:12:58;;;;;;;9.32;6.88;;;;;;;;;;5000382;28;20485;-77
2022/10/03 02:15:25;;;;;;;7.47;6.35;;;;;;;;;;4991177;28;20388;-75
2022/10/03 02:17:54;;;;;;;6.97;6.18;;;;;;;;;;5019440;28;20459;-75
2022/10/03 02:20:26;;;;;;;8.13;6.63;;;;;;;;;;5025876;28;20107;-74
2022/10/03 02:22:56;;;;;;;8.68;6.43;;;;;;;;;;5022435;28;20034;-75
2022/10/03 02:25:50;;;;;;;7.80;5.90;;;;;;;;;;5003389;28;20547;-76
2022/10/03 02:28:34;;;;;;;6.22;4.85;;;;;;;;;;5018337;28;20041;-75
2022/10/03 02:31:19;;;;;;;5.72;3.63;;;;;;;;;;5023261;28;20140;-76
2022/10/03 02:33:53;;;;;;;4.70;3.20;;;;;;;;;;5026657;28;20043;-77
2022/10/03 02:36:31;;;;;;;3.30;2.75;;;;;;;;;;5025977;28;20447;-76
2022/10/03 02:39:15;;;;;;;4.28;2.78;;;;;;;;;;5029679;28;20053;-75
2022/10/03 02:42:00;;;;;;;5.80;2.70;;;;;;;;;;5029653;28;20483;-76
2022/10/03 02:44:34;;;;;;;3.47;2.50;;;;;;;;;;5032927;28;20068;-76
2022/10/03 02:47:15;;;;;;;3.78;2.40;;;;;;;;;;5025169;28;20050;-76
2022/10/03 02:49:55;;;;;;;4.65;2.58;;;;;;;;;;5026025;28;20036;-78
2022/10/03 02:52:43;;;;;;;4.43;2.50;;;;;;;;;;4998663;28;20405;-78
2022/10/03 02:55:26;;;;;;;5.40;3.00;;;;;;;;;;4995413;28;20045;-75
2022/10/03 02:58:11;;;;;;;3.17;2.65;;;;;;;;;;5001878;28;20038;-76
2022/10/03 03:00:55;;;;;;;4.88;2.85;;;;;;;;;;5006761;28;20025;-76
2022/10/03 03:03:39;;;;;;;6.93;2.78;;;;;;;;;;5009999;28;20111;-76
2022/10/03 03:06:23;;;;;;;3.38;2.90;;;;;;;;;;5027625;28;20029;-76
2022/10/03 03:08:52;;;;;;;5.40;2.88;;;;;;;;;;5013302;28;20037;-76
2022/10/03 03:11:30;;;;;;;3.47;2.67;;;;;;;;;;5019159;28;20025;-76
2022/10/03 03:13:57;;;;;;;3.72;2.90;;;;;;;;;;5028718;28;20021;-76
2022/10/03 03:16:58;;;;;;;4.32;2.80;;;;;;;;;;5029241;28;20104;-76
2022/10/03 03:19:36;;;;;;;2.75;2.40;;;;;;;;;;4916942;29;20039;-76
2022/10/03 03:22:09;;;;;;;4.65;3.00;;;;;;;;;;5010293;28;20401;-75
2022/10/03 03:24:54;;;;;;;3.25;2.50;;;;;;;;;;5020461;28;20045;-76
2022/10/03 03:27:22;;;;;;;3.70;2.40;;;;;;;;;;5003796;28;20405;-76
2022/10/03 03:29:51;;;;;;;4.00;2.22;;;;;;;;;;5009229;28;20432;-76
2022/10/03 03:32:36;;;;;;;3.92;2.38;;;;;;;;;;5019219;28;20029;-75
2022/10/03 03:35:12;;;;;;;3.72;2.33;;;;;;;;;;5011458;28;20714;-76
2022/10/03 03:37:40;;;;;;;3.67;2.40;;;;;;;;;;5022582;28;20029;-75
2022/10/03 03:40:10;;;;;;;3.80;2.70;;;;;;;;;;5007381;28;20050;-76
2022/10/03 03:42:56;;;;;;;3.20;2.05;;;;;;;;;;4997216;28;20049;-77
2022/10/03 03:45:22;;;;;;;3.88;2.40;;;;;;;;;;4987983;28;20041;-76
2022/10/03 03:48:07;;;;;;;3.00;2.30;;;;;;;;;;5027870;28;20465;-76
2022/10/03 03:50:45;;;;;;;3.13;2.30;;;;;;;;;;5003965;28;20115;-76
2022/10/03 03:53:10;;;;;;;2.80;1.98;;;;;;;;;;5027331;28;20030;-76
2022/10/03 03:55:55;;;;;;;4.72;2.15;;;;;;;;;;5013413;28;20071;-76
2022/10/03 03:58:23;;;;;;;3.08;2.10;;;;;;;;;;5025821;28;20116;-76
2022/10/03 04:00:59;;;;;;;3.92;2.53;;;;;;;;;;5010851;28;20032;-76
2022/10/03 04:03:43;;;;;;;3.45;2.08;;;;;;;;;;5001729;28;20057;-76
2022/10/03 04:06:46;;;;;;;3.08;2.38;;;;;;;;;;4988341;28;20026;-75
2022/10/03 04:09:17;;;;;;;3.38;2.40;;;;;;;;;;4916923;29;20032;-75
2022/10/03 04:11:45;;;;;;;2.60;2.20;;;;;;;;;;4993995;28;20037;-75
2022/10/03 04:14:16;;;;;;;4.80;2.50;;;;;;;;;;5004483;28;20021;-75
2022/10/03 04:20:04;;;;;;;4.03;2.58;;;;;;;;;;4999539;28;20492;-75
2022/10/03 04:22:32;;;;;;;3.13;2.33;;;;;;;;;;5019167;28;20420;-74
2022/10/03 04:25:01;;;;;;;3.05;2.40;;;;;;;;;;5021257;28;20087;-75
2022/10/03 04:27:29;;;;;;;3.55;2.42;;;;;;;;;;4982605;28;20125;-76
2022/10/03 04:30:07;;;;;;;3.53;2.50;;;;;;;;;;5002212;28;20055;-75
2022/10/03 04:32:41;;;;;;;4.10;2.70;;;;;;;;;;4979243;28;20038;-75
2022/10/03 04:35:22;;;;;;;3.08;2.40;;;;;;;;;;5024906;28;20034;-77
2022/10/03 04:38:10;;;;;;;3.10;2.28;;;;;;;;;;5032353;28;20144;-76
2022/10/03 04:40:55;;;;;;;3.67;1.80;;;;;;;;;;5030863;28;20049;-76
2022/10/03 04:43:23;;;;;;;2.90;2.08;;;;;;;;;;5028245;28;20029;-76
2022/10/03 04:45:52;;;;;;;2.22;1.60;;;;;;;;;;5032082;28;20030;-76
2022/10/03 04:48:37;;;;;;;1.73;1.30;;;;;;;;;;5013124;28;20080;-76
2022/10/03 04:51:12;;;;;;;5.38;2.30;;;;;;;;;;5000875;28;20057;-76
2022/10/03 04:53:45;;;;;;;2.55;1.80;;;;;;;;;;5006203;28;20041;-76
2022/10/03 04:56:15;;;;;;;2.00;1.10;;;;;;;;;;5001144;28;20045;-77
2022/10/03 04:58:47;;;;;;;1.50;1.10;;;;;;;;;;5004671;28;20382;-77
2022/10/03 05:01:48;;;;;;;2.22;1.27;;;;;;;;;;5012823;28;20034;-76
2022/10/03 05:04:22;;;;;;;1.55;1.00;;;;;;;;;;4946630;28;20112;-76
2022/10/03 05:06:54;;;;;;;3.08;1.30;;;;;;;;;;4975488;28;20052;-76
2022/10/03 05:09:21;;;;;;;2.78;1.00;;;;;;;;;;5013277;28;20065;-78
2022/10/03 05:11:58;;;;;;;6.28;1.02;;;;;;;;;;4985621;28;20033;-78
2022/10/03 05:14:42;;;;;;;1.27;0.93;;;;;;;;;;5013079;28;20038;-79
2022/10/03 05:17:27;;;;;;;1.20;0.70;;;;;;;;;;4993872;28;20622;-77
2022/10/03 05:20:16;;;;;;;1.75;0.90;;;;;;;;;;5023751;28;20121;-78
2022/10/03 05:23:04;;;;;;;1.45;0.88;;;;;;;;;;5000609;28;20081;-77
2022/10/03 05:25:52;;;;;;;2.88;1.60;;;;;;;;;;4991028;28;20038;-77
2022/10/03 05:28:25;;;;;;;3.10;1.65;;;;;;;;;;5018437;28;20045;-79
2022/10/03 05:30:57;;;;;;;2.08;1.10;;;;;;;;;;5030027;28;20090;-77
2022/10/03 05:33:42;;;;;;;1.65;1.10;;;;;;;;;;4996209;28;20052;-76
2022/10/03 05:36:10;;;;;;;3.60;0.90;;;;;;;;;;5005714;28;20044;-77
2022/10/03 05:38:55;;;;;;;2.38;0.98;;;;;;;;;;4997873;28;20039;-78
2022/10/03 05:41:35;;;;;;;1.98;0.90;;;;;;;;;;5031679;28;20090;-76
2022/10/03 05:44:00;;;;;;;1.80;0.90;;;;;;;;;;5011992;28;20088;-77
2022/10/03 05:46:26;;;;;;;2.40;0.88;;;;;;;;;;5027623;28;20477;-76
2022/10/03 05:48:52;;;;;;;1.52;0.70;;;;;;;;;;5032448;28;20040;-76
2022/10/03 05:51:37;;;;;;;2.47;0.70;;;;;;;;;;5029884;28;20068;-78
2022/10/03 05:54:06;;;;;;;2.92;0.70;;;;;;;;;;5014162;28;20032;-78
2022/10/03 05:56:35;;;;;;;1.80;0.50;;;;;;;;;;5018753;28;20071;-77
2022/10/03 05:59:13;;;;;;;0.88;0.50;;;;;;;;;;5012742;28;20048;-77
2022/10/03 06:01:58;;;;;;;1.05;0.63;;;;;;;;;;4995555;28;20038;-77
2022/10/03 06:04:42;;;;;;;0.93;0.60;;;;;;;;;;5023395;28;20030;-79
2022/10/03 06:07:13;;;;;;;2.05;0.70;;;;;;;;;;5030292;28;20037;-77
2022/10/03 06:09:39;;;;;;;1.15;0.80;;;;;;;;;;4989224;28;20049;-77
2022/10/03 06:12:04;;;;;;;;;;;;;;;;;;5010833;28;20547;-76
2022/10/03 06:14:45;;;;;;;1.70;0.90;;;;;;;;;;5023985;28;19913;-77
2022/10/03 06:17:27;;;;;;;1.98;0.70;;;;;;;;;;5007494;28;20443;-77
2022/10/03 06:19:53;;;;;;;1.45;0.80;;;;;;;;;;5010086;28;20037;-77
2022/10/03 06:22:19;;;;;;;;;;;;;;;;;;4998246;28;20029;-78
2022/10/03 06:25:02;;;;;;;1.95;0.80;;;;;;;;;;5020440;28;19917;-77
2022/10/03 06:27:42;;;;;;;1.77;0.80;;;;;;;;;;4980627;28;20046;-78
2022/10/03 06:30:10;;;;;;;1.48;0.90;;;;;;;;;;4975344;28;20157;-76
2022/10/03 06:32:45;;;;;;;1.52;0.88;;;;;;;;;;4998955;28;20441;-77
2022/10/03 06:35:29;;;;;;;1.40;1.00;;;;;;;;;;5018141;28;20489;-78
2022/10/03 06:38:01;;;;;;;1.17;0.75;;;;;;;;;;5015889;28;20063;-77
2022/10/03 06:40:47;;;;;;;2.22;0.73;;;;;;;;;;5024122;28;20042;-78
2022/10/03 06:43:37;;;;;;;1.33;0.73;;;;;;;;;;5007871;28;20092;-77
2022/10/03 06:46:03;;;;;;;1.67;1.23;;;;;;;;;;5014052;28;20109;-77
2022/10/03 06:48:28;;;;;;;;;;;;;;;;;;5028944;28;20386;-80
2022/10/03 06:51:27;;;;;;;2.60;0.93;;;;;;;;;;5030832;28;20016;-79
2022/10/03 06:53:59;;;;;;;1.00;0.70;;;;;;;;;;5000334;28;20048;-80
2022/10/03 06:56:30;;;;;;;1.75;1.05;;;;;;;;;;5020580;28;21100;-78
2022/10/03 06:59:04;;;;;;;1.60;1.10;;;;;;;;;;5024149;28;20037;-79
2022/10/03 07:01:52;;;;;;;2.58;1.10;;;;;;;;;;5010770;28;20386;-77
2022/10/03 07:04:36;;;;;;;2.75;1.30;;;;;;;;;;4995457;28;20524;-77
2022/10/03 07:07:17;;;;;;;1.75;1.00;;;;;;;;;;5009756;28;20041;-76
2022/10/03 07:09:45;;;;;;;3.10;1.20;;;;;;;;;;4989684;28;20038;-79
2022/10/03 07:12:14;;;;;;;1.65;1.00;;;;;;;;;;5011339;28;20489;-80
2022/10/03 07:14:39;;;;;;;2.67;1.00;;;;;;;;;;4990364;28;20041;-78
2022/10/03 07:17:05;;;;;;;;;;;;;;;;;;5032584;28;20578;-79
2022/10/03 07:19:33;;;;;;;1.80;0.80;;;;;;;;;;5013982;28;19913;-77
2022/10/03 07:22:05;;;;;;;1.42;0.80;;;;;;;;;;5030983;28;20124;-77
2022/10/03 07:24:30;;;;;;;0.93;0.80;;;;;;;;;;5005481;28;20065;-79
2022/10/03 07:26:56;;;;;;;;;;;;;;;;;;5011881;28;20066;-77
2022/10/03 07:29:22;;;;;;;1.27;0.80;;;;;;;;;;5026051;28;19975;-77
2022/10/03 07:31:47;;;;;;;;;;;;;;;;;;5034314;28;20037;-75
2022/10/03 07:34:32;;;;;;;2.42;0.88;;;;;;;;;;5034660;28;20406;-76
2022/10/03 07:39:54;;;;;;;2.28;0.75;;;;;;;;;;5014534;28;20104;-76
2022/10/03 07:42:20;;;;;;;2.58;1.05;;;;;;;;;;5028990;28;20417;-76
2022/10/03 07:44:45;;;;;;;;;;;;;;;;;;5028500;28;20029;-77
2022/10/03 07:47:19;;;;;;;2.10;1.10;;;;;;;;;;5016140;28;19913;-77
2022/10/03 07:49:59;;;;;;;1.05;0.73;;;;;;;;;;4999266;28;20041;-77
2022/10/03 07:52:39;;;;;;;0.80;0.60;;;;;;;;;;5016164;28;20095;-79
2022/10/03 07:55:07;;;;;;;1.45;0.60;;;;;;;;;;5012700;28;20029;-78
2022/10/03 07:57:41;;;;;;;2.28;0.90;;;;;;;;;;5034571;28;20035;-77
2022/10/03 08:00:21;;;;;;;0.75;0.45;;;;;;;;;;5016438;28;20095;-77
2022/10/03 08:03:05;;;;;;;1.48;0.60;;;;;;;;;;4999696;28;20107;-78
2022/10/03 08:06:02;;;;;;;1.15;0.63;;;;;;;;;;5017363;28;20068;-78
2022/10/03 08:08:34;;;;;;;0.70;0.50;;;;;;;;;;5000482;28;20037;-78
2022/10/03 08:10:59;;;;;;;4.05;0.57;;;;;;;;;;5012542;28;20042;-78
2022/10/03 08:13:24;;;;;;;;;;;;;;;;;;5015347;28;20036;-77
2022/10/03 08:16:16;;;;;;;2.35;0.60;;;;;;;;;;5011709;28;19963;-76
2022/10/03 08:18:57;;;;;;;0.70;0.63;;;;;;;;;;4998032;28;20092;-78
2022/10/03 08:21:30;;;;;;;1.40;0.80;;;;;;;;;;5020582;28;20037;-78
2022/10/03 08:23:56;;;;;;;4.90;1.27;;;;;;;;;;4969494;28;20037;-79
2022/10/03 08:26:21;;;;;;;;;;;;;;;;;;5007678;28;20056;-76
2022/10/03 08:28:52;;;;;;;2.58;1.30;;;;;;;;;;5018012;28;20372;-78
2022/10/03 08:31:27;;;;;;;3.15;1.40;;;;;;;;;;5005907;28;20475;-79
2022/10/03 08:34:09;;;;;;;1.88;1.35;;;;;;;;;;5019941;28;20124;-77
2022/10/03 08:36:41;;;;;;;1.50;1.17;;;;;;;;;;5019562;28;20072;-78
2022/10/03 08:39:19;;;;;;;3.47;1.42;;;;;;;;;;5012905;28;20058;-77
2022/10/03 08:42:03;;;;;;;4.18;1.20;;;;;;;;;;5011913;28;20080;-78
2022/10/03 08:44:44;;;;;;;1.80;1.10;;;;;;;;;;4999403;28;20120;-78
2022/10/03 08:47:29;;;;;;;2.38;1.30;;;;;;;;;;5012761;28;20041;-77
2022/10/03 08:50:13;;;;;;;2.90;1.15;;;;;;;;;;5012871;28;20069;-78
2022/10/03 08:52:51;;;;;;;2.90;1.30;;;;;;;;;;5017022;28;20045;-80
2022/10/03 08:55:26;;;;;;;2.08;1.40;;;;;;;;;;5020526;28;20378;-79
2022/10/03 08:57:57;;;;;;;4.63;1.40;;;;;;;;;;4998410;28;20026;-78
2022/10/03 09:00:25;;;;;;;2.85;1.75;;;;;;;;;;5028208;28;20040;-78
2022/10/03 09:03:30;;;;;;;1.83;1.40;;;;;;;;;;5001587;28;20029;-79
2022/10/03 09:06:18;;;;;;;2.47;1.60;;;;;;;;;;4921847;29;20144;-78
2022/10/03 09:08:44;;;;;;;4.03;1.50;;;;;;;;;;4923292;29;20622;-79
2022/10/03 09:11:09;;;;;;;;;;;;;;;;;;4979484;28;20110;-80
2022/10/03 09:13:49;;;;;;;2.10;1.67;;;;;;;;;;4994950;28;19913;-79
2022/10/03 09:16:22;;;;;;;2.28;1.50;;;;;;;;;;5012826;28;20084;-78
2022/10/03 09:18:53;;;;;;;2.20;1.70;;;;;;;;;;5013610;28;20034;-77
2022/10/03 09:21:19;;;;;;;3.33;1.48;;;;;;;;;;5007593;28;20034;-78
2022/10/03 09:23:44;;;;;;;;;;;;;;;;;;5005102;28;20049;-77
2022/10/03 09:26:10;;;;;;;2.83;1.40;;;;;;;;;;5007056;28;20373;-78
2022/10/03 09:28:35;;;;;;;;;;;;;;;;;;4996438;28;20427;-77
2022/10/03 09:31:19;;;;;;;4.05;1.60;;;;;;;;;;5005439;28;19909;-77
2022/10/03 09:33:58;;;;;;;4.28;1.67;;;;;;;;;;5014397;28;20092;-77
2022/10/03 09:36:26;;;;;;;1.77;1.30;;;;;;;;;;5021605;28;20030;-78
2022/10/03 09:39:07;;;;;;;3.55;1.45;;;;;;;;;;4997475;28;20092;-78
2022/10/03 09:41:33;;;;;;;2.10;1.27;;;;;;;;;;5024996;28;20064;-79
2022/10/03 09:43:58;;;;;;;;;;;;;;;;;;5022983;28;20034;-76
2022/10/03 09:46:42;;;;;;;1.15;0.90;;;;;;;;;;5024540;28;20040;-77
2022/10/03 09:49:22;;;;;;;1.40;0.80;;;;;;;;;;5014875;28;20037;-77
2022/10/03 09:52:07;;;;;;;4.05;1.08;;;;;;;;;;5013772;28;20119;-77
2022/10/03 09:54:34;;;;;;;2.20;1.30;;;;;;;;;;5023986;28;20057;-77
2022/10/03 09:57:14;;;;;;;1.55;1.00;;;;;;;;;;5022718;28;20444;-76
2022/10/03 09:59:56;;;;;;;2.42;1.38;;;;;;;;;;5013430;28;20045;-80
2022/10/03 10:02:49;;;;;;;2.15;0.90;;;;;;;;;;5018137;28;20053;-83
2022/10/03 10:05:24;;;;;;;1.17;0.93;;;;;;;;;;4982024;28;20033;-80
2022/10/03 10:07:59;;;;;;;1.25;0.57;;;;;;;;;;5016975;28;20093;-78
2022/10/03 10:10:47;;;;;;;1.42;0.60;;;;;;;;;;5015343;28;20030;-80
2022/10/03 10:13:13;;;;;;;0.70;0.50;;;;;;;;;;5016748;28;20068;-81
2022/10/03 10:15:38;;;;;;;;;;;;;;;;;;5012047;28;20049;-80
2022/10/03 10:18:10;;;;;;;0.93;0.57;;;;;;;;;;5033722;28;19913;-81
2022/10/03 10:20:54;;;;;;;2.30;0.57;;;;;;;;;;5028842;28;20032;-79
2022/10/03 10:23:23;;;;;;;1.25;0.50;;;;;;;;;;5024059;28;20037;-79
2022/10/03 10:26:12;;;;;;;0.60;0.50;;;;;;;;;;5012223;28;20026;-79
2022/10/03 10:28:44;;;;;;;1.90;0.57;;;;;;;;;;5012111;28;20065;-78
2022/10/03 10:31:35;;;;;;;3.63;0.95;;;;;;;;;;5020561;28;20050;-77
2022/10/03 10:34:20;;;;;;;2.10;0.65;;;;;;;;;;5016706;28;20038;-78
2022/10/03 10:37:04;;;;;;;2.13;0.80;;;;;;;;;;5028946;28;20044;-78
2022/10/03 10:39:48;;;;;;;1.52;0.90;;;;;;;;;;5019456;28;20065;-80
2022/10/03 10:42:32;;;;;;;2.60;0.90;;;;;;;;;;4995736;28;20532;-79
2022/10/03 10:45:18;;;;;;;1.55;0.80;;;;;;;;;;5023203;28;20056;-78
2022/10/03 10:48:02;;;;;;;2.53;0.90;;;;;;;;;;4982669;28;20098;-80
2022/10/03 10:50:37;;;;;;;1.50;0.80;;;;;;;;;;5036637;28;20409;-80
2022/10/03 10:53:21;;;;;;;2.00;0.82;;;;;;;;;;5018459;28;20038;-77
2022/10/03 10:56:06;;;;;;;1.60;0.80;;;;;;;;;;5037577;28;20033;-77
2022/10/03 10:58:40;;;;;;;1.35;0.80;;;;;;;;;;5030481;28;20446;-77
2022/10/03 11:01:15;;;;;;;1.27;0.82;;;;;;;;;;5018202;28;20034;-77
2022/10/03 11:03:50;;;;;;;1.25;0.70;;;;;;;;;;5023783;28;20116;-79
2022/10/03 11:06:31;;;;;;;1.58;0.70;;;;;;;;;;5026126;28;20041;-80
2022/10/03 11:09:15;;;;;;;0.88;0.55;;;;;;;;;;5002871;28;20030;-79
2022/10/03 11:11:59;;;;;;;1.45;0.60;;;;;;;;;;5022530;28;20038;-78
2022/10/03 11:14:44;;;;;;;1.30;0.70;;;;;;;;;;5017812;28;20042;-78
2022/10/03 11:17:12;;;;;;;2.10;0.47;;;;;;;;;;5022226;28;20041;-79
2022/10/03 11:19:53;;;;;;;1.50;0.40;;;;;;;;;;5024530;28;20026;-77
2022/10/03 11:22:28;;;;;;;2.28;0.47;;;;;;;;;;5020867;28;20045;-78
2022/10/03 11:25:23;;;;;;;1.13;0.68;;;;;;;;;;5022644;28;20576;-77
2022/10/03 11:27:51;;;;;;;0.35;0.35;;;;;;;;;;4963689;28;20047;-76
2022/10/03 11:30:28;;;;;;;0.77;0.52;;;;;;;;;;5018327;28;20037;-78
2022/10/03 11:32:53;;;;;;;1.73;0.60;;;;;;;;;;5023307;28;20037;-80
2022/10/03 11:35:19;;;;;;;;;;;;;;;;;;5034715;28;20056;-79
2022/10/03 11:37:45;;;;;;;0.40;0.30;;;;;;;;;;5030651;28;19992;-79
2022/10/03 11:40:10;;;;;;;;;;;;;;;;;;5042719;28;20053;-78
2022/10/03 11:42:44;;;;;;;0.60;0.40;;;;;;;;;;5019113;28;20383;-79
2022/10/03 11:45:19;;;;;;;1.35;0.57;;;;;;;;;;5016210;28;20037;-79
2022/10/03 11:47:45;;;;;;;0.60;0.40;;;;;;;;;;4994762;28;20065;-78
2022/10/03 11:50:10;;;;;;;;;;;;;;;;;;5023424;28;20065;-77
2022/10/03 11:52:36;;;;;;;1.50;0.40;;;;;;;;;;5003907;28;19921;-78
2022/10/03 11:55:01;;;;;;;;;;;;;;;;;;5021616;28;20112;-78
2022/10/03 11:57:32;;;;;;;2.40;0.40;;;;;;;;;;5021055;28;20012;-78
2022/10/03 12:00:13;;;;;;;1.45;0.50;;;;;;;;;;5005205;28;20478;-80
2022/10/03 12:02:38;;;;;;;2.80;0.50;;;;;;;;;;5005174;28;20038;-79
2022/10/03 12:05:04;;;;;;;;;;;;;;;;;;5009026;28;20048;-77
2022/10/03 12:10:32;;;;;;;1.17;0.40;;;;;;;;;;5024761;28;20094;-77
2022/10/03 12:12:57;;;;;;;0.50;0.30;;;;;;;;;;5020659;28;20037;-79
2022/10/03 12:15:23;;;;;;;;;;;;;;;;;;5005406;28;20065;-78
2022/10/03 12:18:08;;;;;;;3.90;0.77;;;;;;;;;;5023989;28;20465;-82
2022/10/03 12:21:07;;;;;;;0.32;0.30;;;;;;;;;;5032584;28;20025;-84
2022/10/03 12:23:52;;;;;;;1.48;0.20;;;;;;;;;;5031933;28;20030;-82
2022/10/03 12:26:36;;;;;;;1.35;0.50;;;;;;;;;;5022327;28;20106;-83
2022/10/03 12:29:03;;;;;;;0.30;0.30;;;;;;;;;;5003313;28;20084;-82
2022/10/03 12:31:38;;;;;;;2.28;0.40;;;;;;;;;;5001467;28;20029;-83
2022/10/03 12:34:24;;;;;;;0.70;0.50;;;;;;;;;;5041200;28;20037;-81
2022/10/03 12:36:54;;;;;;;0.60;0.40;;;;;;;;;;5029435;28;20052;-82
2022/10/03 12:39:20;;;;;;;2.13;0.50;;;;;;;;;;5003861;28;20061;-81
2022/10/03 12:41:45;;;;;;;;;;;;;;;;;;5013906;28;20041;-82
2022/10/03 12:44:14;;;;;;;2.53;1.02;;;;;;;;;;5022853;28;19916;-84
2022/10/03 12:46:50;;;;;;;1.67;0.90;;;;;;;;;;5024303;28;20038;-83
2022/10/03 12:49:16;;;;;;;;;;;;;;;;;;4997588;28;20046;-82
2022/10/03 12:51:58;;;;;;;1.55;0.65;;;;;;;;;;5025973;28;19919;-81
2022/10/03 12:54:30;;;;;;;0.57;0.45;;;;;;;;;;5022892;28;20037;-82
2022/10/03 12:57:06;;;;;;;1.75;0.50;;;;;;;;;;5025601;28;20050;-82
2022/10/03 12:59:50;;;;;;;0.90;0.40;;;;;;;;;;4998298;28;20111;-82
2022/10/03 13:02:23;;;;;;;0.52;0.50;;;;;;;;;;5014294;28;20037;-82
2022/10/03 13:04:51;;;;;;;1.75;0.60;;;;;;;;;;4984270;28;20033;-84
2022/10/03 13:07:18;;;;;;;0.85;0.50;;;;;;;;;;5002237;28;20057;-82
2022/10/03 13:10:05;;;;;;;1.40;0.60;;;;;;;;;;5012616;28;20038;-82
2022/10/03 13:12:35;;;;;;;2.72;0.80;;;;;;;;;;5002932;28;20045;-83
2022/10/03 13:15:02;;;;;;;3.33;2.10;;;;;;;;;;5014262;28;20451;-85
2022/10/03 13:17:34;;;;;;;1.75;1.00;;;;;;;;;;5013281;28;20038;-84
2022/10/03 13:20:02;;;;;;;4.88;2.55;;;;;;;;;;5012419;28;20036;-82
2022/10/03 13:22:35;;;;;;;4.07;3.08;;;;;;;;;;5022227;28;20022;-80
2022/10/03 13:25:16;;;;;;;2.45;1.55;;;;;;;;;;5024571;28;20041;-81
2022/10/03 13:27:43;;;;;;;2.90;1.75;;;;;;;;;;5027668;28;20041;-83
2022/10/03 13:30:12;;;;;;;3.63;1.75;;;;;;;;;;4998797;28;20041;-82
2022/10/03 13:32:38;;;;;;;2.75;1.80;;;;;;;;;;4993623;28;20018;-81
2022/10/03 13:40:42;;;;;;;1.58;0.90;;;;;;;;;;4801376;26;20273;-80
2022/10/03 13:43:12;;;;;;;3.83;0.90;;;;;;;;;;4998286;28;20038;-81
2022/10/03 13:45:43;;;;;;;2.13;0.68;;;;;;;;;;5020016;28;20049;-83
2022/10/03 13:48:21;;;;;;;0.80;0.50;;;;;;;;;;5009075;28;20041;-82
2022/10/03 13:51:26;;;;;;;0.82;0.40;;;;;;;;;;5028959;28;20052;-82
2022/10/03 13:54:00;;;;;;;1.42;0.60;;;;;;;;;;5030875;28;20069;-83
2022/10/03 13:56:26;;;;;;;0.75;0.30;;;;;;;;;;5029061;28;20068;-82
2022/10/03 13:58:51;;;;;;;;;;;;;;;;;;5034815;28;20037;-81
2022/10/03 14:01:17;;;;;;;0.47;0.40;;;;;;;;;;5025865;28;20348;-83
2022/10/03 14:03:44;;;;;;;;;;;;;;;;;;5027356;28;20078;-81
2022/10/03 14:06:25;;;;;;;0.30;0.30;;;;;;;;;;5041525;28;19928;-82
2022/10/03 14:09:09;;;;;;;0.85;0.50;;;;;;;;;;5021521;28;20159;-83
2022/10/03 14:11:37;;;;;;;2.00;0.80;;;;;;;;;;5018039;28;20041;-82
2022/10/03 14:14:09;;;;;;;0.45;0.40;;;;;;;;;;5025847;28;20093;-83
2022/10/03 14:16:50;;;;;;;1.55;0.68;;;;;;;;;;5030856;28;20035;-84
2022/10/03 14:19:19;;;;;;;1.92;0.47;;;;;;;;;;5032770;28;20033;-82
2022/10/03 14:21:54;;;;;;;0.85;0.50;;;;;;;;;;5019782;28;20025;-84
2022/10/03 14:24:21;;;;;;;0.57;0.40;;;;;;;;;;5028720;28;20034;-83
2022/10/03 14:26:49;;;;;;;0.70;0.30;;;;;;;;;;5043279;28;20033;-85
2022/10/03 14:29:22;;;;;;;0.30;0.30;;;;;;;;;;5020227;28;20033;-83
2022/10/03 14:31:51;;;;;;;0.65;0.40;;;;;;;;;;5002784;28;20202;-83
2022/10/03 14:34:46;;;;;;;0.30;0.20;;;;;;;;;;5061738;28;20109;-81
2022/10/03 14:37:21;;;;;;;0.30;0.30;;;;;;;;;;5024132;28;20068;-82
2022/10/03 14:40:04;;;;;;;0.35;0.28;;;;;;;;;;5033221;28;20596;-83
2022/10/03 14:42:33;;;;;;;0.28;0.28;;;;;;;;;;5005713;28;20037;-83
2022/10/03 14:45:01;;;;;;;0.28;0.28;;;;;;;;;;5015430;28;20026;-83
2022/10/03 14:47:35;;;;;;;;;;;;;;;;;;5020600;28;20042;-83
2022/10/03 14:50:00;;;;;;;0.30;0.30;;;;;;;;;;5018937;28;19945;-82
2022/10/03 14:52:26;;;;;;;;;;;;;;;;;;5021245;28;20100;-83
2022/10/03 14:54:53;;;;;;;2.60;0.30;;;;;;;;;;5045067;28;19909;-82
2022/10/03 14:57:33;;;;;;;0.30;0.30;;;;;;;;;;5032852;28;20037;-82
2022/10/03 14:59:59;;;;;;;0.30;0.30;;;;;;;;;;5028374;28;20505;-83
2022/10/03 15:02:24;;;;;;;;;;;;;;;;;;4999493;28;20077;-83
2022/10/03 15:04:50;;;;;;;0.65;0.30;;;;;;;;;;5033671;28;20300;-82
2022/10/03 15:07:16;;;;;;;;;;;;;;;;;;5016797;28;20030;-82
2022/10/03 15:09:42;;;;;;;0.40;0.40;;;;;;;;;;5039847;28;19980;-83
2022/10/03 15:12:08;;;;;;;;;;;;;;;;;;5001279;28;20088;-83
2022/10/03 15:14:35;;;;;;;0.50;0.40;;;;;;;;;;5042447;28;19920;-82
2022/10/03 15:17:00;;;;;;;0.40;0.40;;;;;;;;;;5026319;28;20519;-82
2022/10/03 15:19:27;;;;;;;;;;;;;;;;;;5032579;28;20038;-82
2022/10/03 15:21:52;;;;;;;0.65;0.50;;;;;;;;;;5020436;28;19916;-83
2022/10/03 15:24:18;;;;;;;;;;;;;;;;;;5002272;28;20065;-82
2022/10/03 15:26:46;;;;;;;2.38;0.40;;;;;;;;;;5029836;28;19909;-82
2022/10/03 15:29:13;;;;;;;1.95;0.50;;;;;;;;;;4997146;28;20064;-83
2022/10/03 15:31:39;;;;;;;0.80;0.50;;;;;;;;;;5026468;28;20032;-84
2022/10/03 15:34:07;;;;;;;1.40;0.47;;;;;;;;;;5022006;28;20038;-85
2022/10/03 15:36:37;;;;;;;0.95;0.52;;;;;;;;;;5015663;28;20382;-85
2022/10/03 15:39:04;;;;;;;1.90;0.60;;;;;;;;;;5034048;28;20026;-83
2022/10/03 15:41:42;;;;;;;0.55;0.40;;;;;;;;;;5099086;23;20070;-83
2022/10/03 15:44:16;;;;;;;0.60;0.47;;;;;;;;;;4995541;28;20039;-82
2022/10/03 15:46:46;;;;;;;1.55;0.70;;;;;;;;;;4998319;28;20035;-84
2022/10/03 15:49:25;;;;;;;1.00;0.70;;;;;;;;;;4988401;28;20050;-84
2022/10/03 15:51:51;;;;;;;1.23;0.60;;;;;;;;;;5007358;28;20050;-84